»·PEaware :: UAL342 KCOS-KEGE

UAL342 :: KCOS-KEGE

FLIGHT INFORMATION

Flight Status: Arrived
Operator:
United Airlines
More flights by this operator :: More flights under this callsign
Pilot: Sergei F. (8485)
Aircraft: BOEING 737-600
(B736)
More flights by this aircraft type
Origin: KCOS City Of Colorado Springs Mun
United States
Destination: KEGE Eagle Co Regl
United States
More flights between these airports :: More routes between these airports
Route: COS6 BRK V108 DBL RLG
File this flight plan on PilotEdge
Remarks:
Altitude:
(Current/Filed)
16,000ft
Speed:
(Current/Filed)
385kts
Departed: 10-Nov-23 07:21 PM
Arrived: 10-Nov-23 08:16 PM
Distance/Time
Traveled:
114nm/0:55
Distance/Time
To Go:
Arrived

Flight Plot

Page will automatically refresh every two minutes.

Flight plan parsing failed; only flown route is shown


Map Options




Map Legend


Flown Route
Filed Route
Departure Airport
Arrival Airport
Navaid (VOR, NDB)
Fix

Horizontal Profiles

Position Reports

Time Latitude Longitude Heading Altitude Ground
Speed
10-Nov-23 18:30 38.798889 -104.700239 269 6143ft 0kts
10-Nov-23 18:31 38.798889 -104.700239 269 6143ft 0kts
10-Nov-23 18:32 38.798889 -104.700239 269 6143ft 0kts
10-Nov-23 18:33 38.798889 -104.700239 269 6143ft 0kts
10-Nov-23 18:34 38.798889 -104.700239 269 6143ft 0kts
10-Nov-23 18:35 38.798889 -104.700239 269 6143ft 0kts
10-Nov-23 18:36 38.798889 -104.700239 269 6143ft 0kts
10-Nov-23 18:37 38.798889 -104.700239 269 6143ft 0kts
10-Nov-23 18:38 38.798889 -104.700239 269 6143ft 0kts
10-Nov-23 18:39 38.798889 -104.700239 269 6143ft 0kts
10-Nov-23 18:40 38.798889 -104.700239 269 6143ft 0kts
10-Nov-23 18:41 38.798889 -104.700239 269 6143ft 0kts
10-Nov-23 18:42 38.798889 -104.700239 269 6143ft 0kts
10-Nov-23 18:43 38.798889 -104.700239 269 6143ft 0kts
10-Nov-23 18:44 38.798889 -104.700239 269 6143ft 0kts
10-Nov-23 18:45 38.798889 -104.700239 269 6143ft 0kts
10-Nov-23 18:46 38.798889 -104.700239 269 6143ft 0kts
10-Nov-23 18:47 38.798889 -104.700239 269 6143ft 0kts
10-Nov-23 18:48 38.798889 -104.700239 269 6143ft 0kts
10-Nov-23 18:49 38.798889 -104.700239 269 6143ft 0kts
10-Nov-23 18:50 38.798889 -104.700239 269 6143ft 0kts
10-Nov-23 18:51 38.798889 -104.700239 269 6143ft 0kts
10-Nov-23 18:52 38.798889 -104.700239 269 6143ft 0kts
10-Nov-23 18:53 38.798889 -104.700239 269 6143ft 0kts
10-Nov-23 18:54 38.798889 -104.700239 269 6143ft 0kts
10-Nov-23 18:55 38.798889 -104.700239 269 6143ft 0kts
10-Nov-23 18:56 38.798862 -104.699684 278 6143ft 2kts
10-Nov-23 18:57 38.798496 -104.699212 359 6143ft 2kts
10-Nov-23 18:58 38.798934 -104.699212 0 6143ft 1kts
10-Nov-23 18:59 38.799320 -104.699212 0 6143ft 0kts
10-Nov-23 19:00 38.799320 -104.699212 0 6143ft 0kts
10-Nov-23 19:01 38.799320 -104.699212 0 6143ft 0kts
10-Nov-23 19:02 38.799320 -104.699212 0 6143ft 0kts
10-Nov-23 19:03 38.799320 -104.699212 0 6143ft 0kts
10-Nov-23 19:04 38.799320 -104.699212 0 6143ft 0kts
10-Nov-23 19:05 38.799320 -104.699212 0 6143ft 0kts
10-Nov-23 19:06 38.799320 -104.699212 0 6143ft 0kts
10-Nov-23 19:07 38.799549 -104.699211 0 6143ft 4kts
10-Nov-23 19:08 38.800741 -104.699442 284 6146ft 4kts
10-Nov-23 19:09 38.801349 -104.700847 359 6147ft 6kts
10-Nov-23 19:10 38.802957 -104.700848 358 6150ft 5kts
10-Nov-23 19:11 38.803611 -104.699402 90 6151ft 7kts
10-Nov-23 19:12 38.803612 -104.696002 89 6151ft 11kts
10-Nov-23 19:13 38.803606 -104.691580 90 6151ft 12kts
10-Nov-23 19:14 38.803603 -104.689038 89 6151ft 4kts
10-Nov-23 19:15 38.804223 -104.687874 0 6152ft 5kts
10-Nov-23 19:16 38.806844 -104.687862 359 6156ft 11kts
10-Nov-23 19:17 38.810206 -104.687859 359 6162ft 13kts
10-Nov-23 19:18 38.813791 -104.687854 0 6170ft 12kts
10-Nov-23 19:19 38.815985 -104.686292 90 6171ft 10kts
10-Nov-23 19:20 38.807195 -104.685757 179 6157ft 123kts
10-Nov-23 19:21 38.761631 -104.685265 180 8796ft 164kts
10-Nov-23 19:22 38.714051 -104.652711 110 10583ft 243kts
10-Nov-23 19:23 38.751581 -104.596281 353 13193ft 271kts
10-Nov-23 19:24 38.840158 -104.613636 349 14548ft 363kts
10-Nov-23 19:25 38.937074 -104.648435 315 15876ft 367kts
10-Nov-23 19:26 38.977280 -104.772923 285 15975ft 386kts
10-Nov-23 19:27 39.006918 -104.906270 285 18116ft 386kts
10-Nov-23 19:28 39.037300 -105.040247 285 18211ft 396kts
10-Nov-23 19:29 39.067973 -105.176371 285 18222ft 395kts
10-Nov-23 19:30 39.098320 -105.311894 285 18230ft 394kts
10-Nov-23 19:31 39.161259 -105.424699 316 18258ft 395kts
10-Nov-23 19:32 39.242927 -105.520784 315 18239ft 396kts
10-Nov-23 19:33 39.323485 -105.616956 315 18237ft 393kts
10-Nov-23 19:34 39.403626 -105.713165 315 18239ft 394kts
10-Nov-23 19:35 39.483703 -105.809601 315 18247ft 393kts
10-Nov-23 19:36 39.563530 -105.906073 314 18258ft 393kts
10-Nov-23 19:37 39.643305 -106.002777 314 18229ft 392kts
10-Nov-23 19:38 39.722065 -106.098544 314 18169ft 368kts
10-Nov-23 19:39 39.789803 -106.181108 313 18144ft 307kts
10-Nov-23 19:40 39.851399 -106.256569 313 17360ft 298kts
10-Nov-23 19:41 39.909980 -106.328425 313 16291ft 280kts
10-Nov-23 19:42 39.962301 -106.395947 294 15801ft 242kts
10-Nov-23 19:43 39.939133 -106.469346 206 14981ft 250kts
10-Nov-23 19:44 39.875454 -106.496261 201 13977ft 232kts
10-Nov-23 19:45 39.822103 -106.518549 201 13627ft 234kts
10-Nov-23 19:46 39.760086 -106.544581 201 13365ft 233kts
10-Nov-23 19:47 39.702532 -106.569217 211 12782ft 211kts
10-Nov-23 19:48 39.683501 -106.636159 259 12710ft 206kts
10-Nov-23 19:49 39.672638 -106.708932 259 11642ft 204kts
10-Nov-23 19:50 39.662247 -106.778624 259 10208ft 185kts
10-Nov-23 19:51 39.651890 -106.838516 258 8710ft 154kts
10-Nov-23 19:52 39.646247 -106.898619 260 9513ft 201kts
10-Nov-23 19:53 39.636990 -106.970233 262 11812ft 197kts
10-Nov-23 19:54 39.637061 -107.045227 306 13581ft 258kts
10-Nov-23 19:55 39.714038 -107.042730 42 14965ft 335kts
10-Nov-23 19:56 39.775476 -106.954852 18 14969ft 327kts
10-Nov-23 19:57 39.863524 -106.925573 9 14911ft 327kts
10-Nov-23 19:58 39.950176 -106.889984 18 14879ft 328kts
10-Nov-23 19:59 40.035022 -106.845905 18 14871ft 329kts
10-Nov-23 20:00 40.087092 -106.758508 92 14880ft 333kts
10-Nov-23 20:01 40.058538 -106.643914 111 14838ft 332kts
10-Nov-23 20:02 40.027323 -106.531801 111 14808ft 311kts
10-Nov-23 20:03 39.980923 -106.459279 177 14622ft 242kts
10-Nov-23 20:04 39.922182 -106.476298 202 14056ft 210kts
10-Nov-23 20:05 39.866672 -106.499775 202 13817ft 210kts
10-Nov-23 20:06 39.810971 -106.523223 202 13638ft 211kts
10-Nov-23 20:07 39.755644 -106.546412 201 13327ft 197kts
10-Nov-23 20:08 39.706926 -106.566825 202 12825ft 185kts
10-Nov-23 20:09 39.685917 -106.621970 258 12346ft 175kts
10-Nov-23 20:10 39.676270 -106.684577 259 11226ft 172kts
10-Nov-23 20:11 39.667684 -106.742276 259 9949ft 159kts
10-Nov-23 20:12 39.657575 -106.800795 256 8567ft 166kts
10-Nov-23 20:13 39.649403 -106.855675 262 7349ft 150kts
10-Nov-23 20:14 39.643243 -106.911546 262 6537ft 152kts
10-Nov-23 20:15 39.640980 -106.931301 226 6469ft 9kts
10-Nov-23 20:16 39.640211 -106.929160 82 6478ft 8kts
10-Nov-23 20:18 39.640539 -106.926169 81 6484ft 7kts
10-Nov-23 20:19 39.640974 -106.922274 81 6492ft 14kts
10-Nov-23 20:20 39.641427 -106.918150 81 6513ft 12kts
10-Nov-23 20:21 39.640984 -106.915465 171 6525ft 4kts
10-Nov-23 20:22 39.640510 -106.915379 171 6525ft 0kts
10-Nov-23 20:23 39.640510 -106.915379 171 6525ft 0kts
10-Nov-23 20:24 39.640510 -106.915379 171 6525ft 0kts
10-Nov-23 20:25 39.640510 -106.915379 171 6525ft 0kts
10-Nov-23 20:26 39.640510 -106.915379 171 6526ft 0kts
10-Nov-23 20:27 39.640510 -106.915379 171 6526ft 0kts
10-Nov-23 20:28 39.640510 -106.915379 171 6526ft 0kts
10-Nov-23 20:29 39.640510 -106.915379 171 6526ft 0kts
10-Nov-23 20:30 39.640510 -106.915379 171 6526ft 0kts

Navigation Log

Ident Type
Flight plan parsing failed, navigation log unavailable